Time;durP1;ratioP1;P1;durP2;ratioP2;P2;SDS_P1;SDS_P2;PMS_P1;PMS_P2;Temp;Humidity;BMP_temperature;BMP_pressure;BME280_temperature;BME280_humidity;BME280_pressure;Samples;Min_cycle;Max_cycle;Signal;HPM_P1;HPM_P2
2024/01/11 00:02:25;;;;;;;43.20;22.65;;;-5.20;99.90;;;;;;4952687;28;20232;-69
2024/01/11 00:04:53;;;;;;;46.58;22.40;;;-5.30;99.90;;;;;;4969610;28;20227;-69
2024/01/11 00:07:21;;;;;;;44.72;23.17;;;-5.30;99.90;;;;;;4983319;28;20207;-68
2024/01/11 00:09:49;;;;;;;52.70;25.63;;;-5.30;99.90;;;;;;4979147;28;20684;-68
2024/01/11 00:12:17;;;;;;;49.08;22.60;;;-5.30;99.90;;;;;;4968254;28;20243;-67
2024/01/11 00:14:45;;;;;;;52.00;24.70;;;-5.10;99.90;;;;;;4966289;28;20302;-68
2024/01/11 00:17:15;;;;;;;47.63;25.20;;;-5.10;99.90;;;;;;4969407;28;20212;-67
2024/01/11 00:19:43;;;;;;;45.78;22.70;;;-5.10;99.90;;;;;;4970225;28;20212;-68
2024/01/11 00:22:11;;;;;;;43.67;24.27;;;-5.20;99.90;;;;;;4970184;28;20303;-68
2024/01/11 00:24:40;;;;;;;46.70;22.85;;;-5.20;99.90;;;;;;4970462;28;20838;-68
2024/01/11 00:27:08;;;;;;;46.10;24.77;;;-5.30;99.90;;;;;;4975974;28;20670;-67
2024/01/11 00:29:37;;;;;;;44.67;20.65;;;-5.30;99.90;;;;;;4967327;28;20336;-68
2024/01/11 00:32:05;;;;;;;48.78;25.38;;;-5.40;99.90;;;;;;4964908;28;20208;-68
2024/01/11 00:34:35;;;;;;;53.33;24.58;;;-5.50;99.90;;;;;;4954966;28;20228;-68
2024/01/11 00:37:04;;;;;;;45.40;25.08;;;-5.50;99.90;;;;;;4967642;28;20258;-68
2024/01/11 00:39:32;;;;;;;43.25;23.35;;;-5.60;99.90;;;;;;4968228;28;20736;-68
2024/01/11 00:42:00;;;;;;;52.58;23.73;;;-5.50;99.90;;;;;;4967058;28;20204;-68
2024/01/11 00:44:28;;;;;;;45.83;23.02;;;-5.60;99.90;;;;;;4970083;28;20323;-68
2024/01/11 00:46:55;;;;;;;48.00;23.70;;;-5.60;99.90;;;;;;4969725;28;20745;-68
2024/01/11 00:49:24;;;;;;;41.45;23.20;;;-5.60;99.90;;;;;;4965453;28;20288;-68
2024/01/11 00:51:53;;;;;;;47.90;24.58;;;-5.80;99.90;;;;;;4968957;28;20226;-68
2024/01/11 00:54:21;;;;;;;44.03;22.92;;;-5.80;99.90;;;;;;4963961;28;20220;-68
2024/01/11 00:56:49;;;;;;;45.25;24.55;;;-5.70;99.90;;;;;;4968830;28;20216;-67
2024/01/11 00:59:17;;;;;;;44.92;23.65;;;-5.80;99.90;;;;;;4968061;28;20772;-68
2024/01/11 01:01:48;;;;;;;46.15;22.67;;;-5.80;99.90;;;;;;4969574;28;20246;-67
2024/01/11 01:04:16;;;;;;;43.72;22.60;;;-5.80;99.90;;;;;;4969962;28;20238;-68
2024/01/11 01:06:44;;;;;;;50.72;23.83;;;-5.70;99.90;;;;;;4969447;28;20731;-68
2024/01/11 01:09:14;;;;;;;50.65;24.77;;;-5.70;99.90;;;;;;4969748;28;20317;-69
2024/01/11 01:11:42;;;;;;;44.60;23.52;;;-5.70;99.90;;;;;;4966804;28;20223;-69
2024/01/11 01:14:10;;;;;;;39.80;23.40;;;-5.70;99.90;;;;;;4964868;28;20876;-68
2024/01/11 01:16:38;;;;;;;43.25;23.25;;;-5.60;99.90;;;;;;4966304;28;20276;-68
2024/01/11 01:19:06;;;;;;;49.45;24.25;;;-5.70;99.90;;;;;;4969110;28;20224;-68
2024/01/11 01:21:34;;;;;;;47.15;23.67;;;-5.70;99.90;;;;;;4969165;28;20214;-68
2024/01/11 01:24:02;;;;;;;42.08;21.73;;;-5.80;99.90;;;;;;4960801;28;20251;-68
2024/01/11 01:26:31;;;;;;;43.75;24.35;;;-5.80;99.90;;;;;;4969424;28;20215;-68
2024/01/11 01:28:59;;;;;;;49.97;23.75;;;-5.70;99.90;;;;;;4967007;28;20243;-67
2024/01/11 01:31:28;;;;;;;47.53;23.15;;;-5.70;99.90;;;;;;4969135;28;20215;-68
2024/01/11 01:33:56;;;;;;;47.42;22.00;;;-5.60;99.90;;;;;;4968196;28;20228;-68
2024/01/11 01:36:24;;;;;;;47.20;22.33;;;-5.70;99.90;;;;;;4963435;28;20205;-68
2024/01/11 01:38:52;;;;;;;45.65;22.23;;;-5.70;99.90;;;;;;4967993;28;20267;-68
2024/01/11 01:41:20;;;;;;;50.45;24.00;;;-5.80;99.90;;;;;;4964733;28;20770;-68
2024/01/11 01:43:49;;;;;;;44.75;22.55;;;-5.90;99.90;;;;;;4969156;28;20814;-66
2024/01/11 01:46:23;;;;;;;56.65;24.42;;;-6.00;99.90;;;;;;4968843;28;20284;-68
2024/01/11 01:48:51;;;;;;;48.50;23.80;;;-5.90;99.90;;;;;;4968764;28;20211;-68
2024/01/11 01:51:20;;;;;;;52.70;22.98;;;-6.00;99.90;;;;;;4968708;28;20241;-67
2024/01/11 01:53:49;;;;;;;52.58;28.75;;;-5.90;99.90;;;;;;4967575;28;20231;-68
2024/01/11 01:56:18;;;;;;;46.40;24.15;;;-5.90;99.90;;;;;;4969892;28;20628;-68
2024/01/11 01:58:46;;;;;;;45.25;22.60;;;-5.80;99.90;;;;;;4969424;28;20224;-68
2024/01/11 02:01:16;;;;;;;49.45;24.50;;;-5.80;99.90;;;;;;4969193;28;20204;-68
2024/01/11 02:03:46;;;;;;;49.97;25.42;;;-5.80;99.90;;;;;;4962246;28;20953;-68
2024/01/11 02:06:15;;;;;;;44.25;24.20;;;-5.80;99.90;;;;;;4968774;28;20211;-69
2024/01/11 02:08:44;;;;;;;49.05;23.40;;;-5.90;99.90;;;;;;4959987;28;20673;-68
2024/01/11 02:11:12;;;;;;;43.95;22.35;;;-5.90;99.90;;;;;;4968295;28;20753;-69
2024/01/11 02:13:41;;;;;;;36.03;20.33;;;-5.90;99.90;;;;;;4967864;28;20290;-69
2024/01/11 02:16:09;;;;;;;51.47;21.95;;;-5.90;99.90;;;;;;4964008;28;20696;-69
2024/01/11 02:18:38;;;;;;;47.53;23.35;;;-5.80;99.90;;;;;;4961747;28;20625;-68
2024/01/11 02:21:10;;;;;;;36.75;19.55;;;-5.80;99.90;;;;;;4960576;28;20889;-68
2024/01/11 02:23:45;;;;;;;45.97;23.77;;;-5.70;99.90;;;;;;4968293;28;20286;-68
2024/01/11 02:26:15;;;;;;;47.17;22.15;;;-5.70;99.90;;;;;;4966051;28;20222;-69
2024/01/11 02:28:46;;;;;;;42.65;22.52;;;-5.60;99.90;;;;;;4966004;28;20222;-68
2024/01/11 02:31:15;;;;;;;48.50;24.30;;;-5.70;99.90;;;;;;4967848;28;20303;-70
2024/01/11 02:33:44;;;;;;;41.60;23.52;;;-5.90;99.90;;;;;;4968336;28;20637;-69
2024/01/11 02:36:13;;;;;;;44.53;23.30;;;-6.00;99.90;;;;;;4968875;28;20215;-70
2024/01/11 02:38:43;;;;;;;47.17;23.60;;;-6.00;99.90;;;;;;4966284;28;20873;-70
2024/01/11 02:41:12;;;;;;;45.85;25.02;;;-6.00;99.90;;;;;;4962665;28;20211;-69
2024/01/11 02:43:41;;;;;;;48.88;24.65;;;-6.10;99.90;;;;;;4965692;28;20884;-69
2024/01/11 02:46:09;;;;;;;48.65;23.45;;;-6.10;99.90;;;;;;4970903;28;20622;-69
2024/01/11 02:48:37;;;;;;;45.15;23.02;;;-6.00;99.90;;;;;;4972056;28;20235;-69
2024/01/11 02:51:05;;;;;;;47.63;23.25;;;-6.10;99.90;;;;;;4969012;28;20630;-69
2024/01/11 02:53:34;;;;;;;44.55;23.40;;;-6.10;99.90;;;;;;4969290;28;20294;-69
2024/01/11 02:56:02;;;;;;;41.45;22.52;;;-6.10;99.90;;;;;;4972237;28;20582;-69
2024/01/11 02:58:30;;;;;;;43.80;22.25;;;-6.00;99.90;;;;;;4972792;28;20212;-69
2024/01/11 03:01:00;;;;;;;52.20;23.88;;;-6.00;99.90;;;;;;4965776;28;20224;-68
2024/01/11 03:03:28;;;;;;;48.50;21.88;;;-6.10;99.90;;;;;;4968303;28;20224;-69
2024/01/11 03:05:56;;;;;;;48.28;26.08;;;-6.10;99.90;;;;;;4972623;28;20210;-69
2024/01/11 03:08:24;;;;;;;49.33;22.80;;;-6.10;99.90;;;;;;4972440;28;20208;-69
2024/01/11 03:10:52;;;;;;;57.75;25.35;;;-6.10;99.90;;;;;;4965147;28;20207;-69
2024/01/11 03:13:20;;;;;;;48.30;22.27;;;-6.00;99.90;;;;;;4972624;28;20227;-69
2024/01/11 03:15:48;;;;;;;48.20;22.08;;;-6.00;99.90;;;;;;4972604;28;20223;-69
2024/01/11 03:18:18;;;;;;;45.03;22.92;;;-6.00;99.90;;;;;;4971053;28;20207;-69
2024/01/11 03:20:46;;;;;;;47.20;21.70;;;-5.90;99.90;;;;;;4971903;28;20258;-69
2024/01/11 03:23:14;;;;;;;35.85;21.75;;;-5.90;99.90;;;;;;4969216;28;20231;-69
2024/01/11 03:25:42;;;;;;;48.85;23.23;;;-6.00;99.90;;;;;;4972616;28;20691;-69
2024/01/11 03:28:10;;;;;;;45.65;23.23;;;-5.90;99.90;;;;;;4972598;28;20211;-69
2024/01/11 03:30:37;;;;;;;45.22;22.98;;;-5.90;99.90;;;;;;4968438;28;20295;-69
2024/01/11 03:33:05;;;;;;;47.85;22.00;;;-6.00;99.90;;;;;;4965949;28;20218;-69
2024/01/11 03:35:37;;;;;;;44.97;21.90;;;-6.20;99.90;;;;;;4972006;28;20558;-69
2024/01/11 03:38:05;;;;;;;39.47;21.83;;;-6.20;99.90;;;;;;4972772;28;20242;-69
2024/01/11 03:40:33;;;;;;;49.20;22.25;;;-6.30;99.90;;;;;;4970724;28;20241;-69
2024/01/11 03:43:01;;;;;;;47.40;23.33;;;-6.20;99.90;;;;;;4966217;28;20196;-70
2024/01/11 03:45:29;;;;;;;51.22;23.58;;;-6.20;99.90;;;;;;4971935;28;20636;-69
2024/01/11 03:47:57;;;;;;;53.03;23.13;;;-6.20;99.90;;;;;;4971727;28;20215;-69
2024/01/11 03:50:25;;;;;;;46.65;22.45;;;-6.20;99.90;;;;;;4965351;28;20204;-69
2024/01/11 03:52:54;;;;;;;44.40;22.02;;;-6.20;99.90;;;;;;4970031;28;20216;-69
2024/01/11 03:55:22;;;;;;;51.05;22.10;;;-6.30;99.90;;;;;;4972045;28;20319;-69
2024/01/11 03:57:50;;;;;;;46.20;22.75;;;-6.30;99.90;;;;;;4970989;28;20222;-69
2024/01/11 04:00:18;;;;;;;41.90;20.85;;;-6.40;99.90;;;;;;4971251;28;20234;-69
2024/01/11 04:02:46;;;;;;;49.17;22.70;;;-6.40;99.90;;;;;;4969356;28;20212;-69
2024/01/11 04:05:15;;;;;;;42.35;23.00;;;-6.30;99.90;;;;;;4971120;28;20810;-69
2024/01/11 04:07:44;;;;;;;43.50;21.85;;;-6.40;99.90;;;;;;4971285;28;20211;-69
2024/01/11 04:10:13;;;;;;;49.35;23.73;;;-6.40;99.90;;;;;;4971343;28;20220;-69
2024/01/11 04:12:41;;;;;;;42.72;22.42;;;-6.40;99.90;;;;;;4968789;28;20302;-69
2024/01/11 04:15:09;;;;;;;45.30;22.45;;;-6.30;99.90;;;;;;4967341;28;20224;-69
2024/01/11 04:17:39;;;;;;;45.42;20.70;;;-6.30;99.90;;;;;;4970750;28;20216;-69
2024/01/11 04:20:08;;;;;;;47.17;22.08;;;-6.20;99.90;;;;;;4971016;28;20587;-69
2024/01/11 04:22:36;;;;;;;40.38;21.58;;;-6.10;99.90;;;;;;4970862;28;20204;-68
2024/01/11 04:25:05;;;;;;;41.97;21.15;;;-6.20;99.90;;;;;;4963652;28;20239;-69
2024/01/11 04:27:35;;;;;;;45.78;21.35;;;-6.40;99.90;;;;;;4970952;28;20243;-68
2024/01/11 04:30:03;;;;;;;42.25;21.65;;;-6.50;99.90;;;;;;4970646;28;20208;-68
2024/01/11 04:32:31;;;;;;;42.25;21.23;;;-6.50;99.90;;;;;;4971041;28;20267;-69
2024/01/11 04:34:59;;;;;;;45.03;21.83;;;-6.50;99.90;;;;;;4971071;28;20227;-69
2024/01/11 04:37:27;;;;;;;45.42;21.50;;;-6.50;99.90;;;;;;4970499;28;20286;-69
2024/01/11 04:39:55;;;;;;;46.35;24.48;;;-6.60;99.90;;;;;;4970290;28;20227;-69
2024/01/11 04:42:23;;;;;;;46.40;23.38;;;-6.70;99.90;;;;;;4970710;28;20208;-69
2024/01/11 04:44:52;;;;;;;52.47;24.63;;;-6.70;99.90;;;;;;4970829;28;20232;-69
2024/01/11 04:47:20;;;;;;;41.28;21.63;;;-6.70;99.90;;;;;;4970744;28;20220;-69
2024/01/11 04:49:48;;;;;;;44.28;24.20;;;-6.70;99.90;;;;;;4969027;28;20303;-69
2024/01/11 04:52:16;;;;;;;46.10;23.88;;;-6.70;99.90;;;;;;4970383;28;20290;-70
2024/01/11 04:54:44;;;;;;;42.90;20.75;;;-6.50;99.90;;;;;;4965404;28;20690;-69
2024/01/11 04:57:12;;;;;;;47.05;22.33;;;-6.60;99.90;;;;;;4963767;28;20208;-69
2024/01/11 04:59:40;;;;;;;48.47;22.77;;;-6.50;99.90;;;;;;4971841;28;20274;-69
2024/01/11 05:02:10;;;;;;;48.20;23.33;;;-6.50;99.90;;;;;;4971029;28;20228;-69
2024/01/11 05:04:38;;;;;;;47.35;22.98;;;-6.40;99.90;;;;;;4967998;28;20319;-69
2024/01/11 05:07:06;;;;;;;43.35;23.05;;;-6.50;99.90;;;;;;4971340;28;20220;-70
2024/01/11 05:09:34;;;;;;;55.67;21.67;;;-6.50;99.90;;;;;;4964292;28;20215;-69
2024/01/11 05:12:02;;;;;;;50.05;22.25;;;-6.60;99.90;;;;;;4969996;28;20216;-69
2024/01/11 05:14:30;;;;;;;46.42;22.65;;;-6.60;99.90;;;;;;4966434;28;20290;-69
2024/01/11 05:16:58;;;;;;;46.03;20.83;;;-6.60;99.90;;;;;;4969777;28;20694;-69
2024/01/11 05:19:27;;;;;;;48.65;25.30;;;-6.50;99.90;;;;;;4965605;28;20210;-69
2024/01/11 05:21:55;;;;;;;51.47;23.42;;;-6.60;99.90;;;;;;4969543;28;20234;-68
2024/01/11 05:24:23;;;;;;;45.03;23.35;;;-6.60;99.90;;;;;;4970177;28;20232;-69
2024/01/11 05:26:51;;;;;;;49.63;26.02;;;-6.60;99.90;;;;;;4970047;28;20208;-68
2024/01/11 05:29:19;;;;;;;43.22;21.25;;;-6.60;99.90;;;;;;4969825;28;20217;-68
2024/01/11 05:31:47;;;;;;;46.63;23.70;;;-6.50;99.90;;;;;;4963773;28;20223;-68
2024/01/11 05:34:15;;;;;;;40.80;21.50;;;-6.50;99.90;;;;;;4969986;28;20979;-68
2024/01/11 05:36:45;;;;;;;48.47;22.92;;;-6.50;99.90;;;;;;4969993;28;20214;-68
2024/01/11 05:39:13;;;;;;;49.53;23.17;;;-6.50;99.90;;;;;;4968123;28;20204;-69
2024/01/11 05:41:44;;;;;;;41.28;21.20;;;-6.60;99.90;;;;;;4968192;28;20228;-70
2024/01/11 05:44:12;;;;;;;42.08;21.70;;;-6.60;99.90;;;;;;4966448;28;20223;-69
2024/01/11 05:46:40;;;;;;;42.20;20.88;;;-6.70;99.90;;;;;;4969603;28;20208;-70
2024/01/11 05:49:08;;;;;;;42.22;22.30;;;-6.80;99.90;;;;;;4969338;28;20204;-72
2024/01/11 05:51:36;;;;;;;45.17;22.58;;;-6.70;99.90;;;;;;4968481;28;20219;-67
2024/01/11 05:54:06;;;;;;;45.05;23.20;;;-6.70;99.90;;;;;;4961581;28;20717;-70
2024/01/11 05:56:34;;;;;;;49.83;23.70;;;-6.70;99.90;;;;;;4968824;28;20207;-70
2024/01/11 05:59:02;;;;;;;46.58;23.70;;;-6.70;99.90;;;;;;4968638;28;20302;-70
2024/01/11 06:01:30;;;;;;;40.65;20.80;;;-6.80;99.90;;;;;;4967610;28;20306;-70
2024/01/11 06:03:58;;;;;;;54.78;26.50;;;-6.80;99.90;;;;;;4968930;28;20278;-68
2024/01/11 06:06:26;;;;;;;38.95;20.42;;;-6.80;99.90;;;;;;4969125;28;20226;-70
2024/01/11 06:08:54;;;;;;;48.78;23.63;;;-6.90;99.90;;;;;;4968776;28;20204;-69
2024/01/11 06:11:23;;;;;;;51.28;22.58;;;-6.90;99.90;;;;;;4968950;28;20208;-69
2024/01/11 06:13:51;;;;;;;50.75;23.75;;;-6.60;99.90;;;;;;4969065;28;20234;-70
2024/01/11 06:16:19;;;;;;;55.33;23.60;;;-6.70;99.90;;;;;;4964146;28;20674;-70
2024/01/11 06:18:47;;;;;;;44.90;22.60;;;-6.80;99.90;;;;;;4964632;28;20212;-69
2024/01/11 06:21:17;;;;;;;46.15;20.75;;;-6.80;99.90;;;;;;4974756;28;20302;-69
2024/01/11 06:23:45;;;;;;;42.75;21.83;;;-6.60;99.90;;;;;;4971961;28;20791;-69
2024/01/11 06:26:15;;;;;;;49.47;24.35;;;-6.60;99.90;;;;;;4984926;28;20292;-70
2024/01/11 06:28:45;;;;;;;41.47;20.83;;;-6.60;99.90;;;;;;4967428;28;20265;-70
2024/01/11 06:31:13;;;;;;;47.38;22.75;;;-6.80;99.90;;;;;;4968023;28;20208;-70
2024/01/11 06:33:41;;;;;;;52.45;22.08;;;-6.70;99.90;;;;;;4963214;28;20228;-70
2024/01/11 06:36:09;;;;;;;42.67;22.77;;;-6.70;99.90;;;;;;4977901;28;20203;-70
2024/01/11 06:38:37;;;;;;;45.63;24.17;;;-6.70;99.90;;;;;;4985230;28;20199;-70
2024/01/11 06:41:05;;;;;;;45.92;22.05;;;-6.70;99.90;;;;;;4974482;28;20226;-70
2024/01/11 06:43:33;;;;;;;48.90;23.10;;;-6.60;99.90;;;;;;4974340;28;20321;-70
2024/01/11 06:46:05;;;;;;;44.83;21.73;;;-6.80;99.90;;;;;;4976488;28;20199;-70
2024/01/11 06:48:33;;;;;;;51.13;23.15;;;-6.90;99.90;;;;;;4981445;28;20262;-70
2024/01/11 06:51:02;;;;;;;44.03;23.10;;;-7.00;99.90;;;;;;4968480;28;20219;-69
2024/01/11 06:53:30;;;;;;;45.00;20.35;;;-7.00;99.90;;;;;;4973923;28;20228;-70
2024/01/11 06:55:58;;;;;;;47.40;21.60;;;-6.90;99.90;;;;;;4983385;28;20286;-70
2024/01/11 06:58:26;;;;;;;45.53;22.90;;;-6.90;99.90;;;;;;4969770;28;20200;-69
2024/01/11 07:00:54;;;;;;;45.38;24.55;;;-7.00;99.90;;;;;;4959178;28;20201;-69
2024/01/11 07:03:23;;;;;;;42.65;21.58;;;-7.00;99.90;;;;;;4964328;28;21035;-70
2024/01/11 07:05:51;;;;;;;49.47;23.80;;;-6.90;99.90;;;;;;4967805;28;20821;-70
2024/01/11 07:08:19;;;;;;;42.05;20.88;;;-6.80;99.90;;;;;;4968986;28;20227;-69
2024/01/11 07:10:48;;;;;;;42.17;21.20;;;-6.80;99.90;;;;;;4968606;28;20219;-70
2024/01/11 07:13:19;;;;;;;45.95;22.25;;;-6.70;99.90;;;;;;4969081;28;20286;-70
2024/01/11 07:15:48;;;;;;;43.25;21.23;;;-6.70;99.90;;;;;;4969705;28;20235;-70
2024/01/11 07:18:16;;;;;;;42.40;21.20;;;-6.70;99.90;;;;;;4969126;28;20218;-70
2024/01/11 07:20:46;;;;;;;56.20;22.13;;;-6.80;99.90;;;;;;4968784;28;20303;-70
2024/01/11 07:23:14;;;;;;;43.97;22.48;;;-6.70;99.90;;;;;;4969067;28;20255;-70
2024/01/11 07:25:42;;;;;;;47.55;21.45;;;-6.60;99.90;;;;;;4968993;28;20646;-70
2024/01/11 07:28:10;;;;;;;47.58;22.73;;;-6.50;99.90;;;;;;4969457;28;20219;-70
2024/01/11 07:30:37;;;;;;;57.55;24.90;;;-6.60;99.90;;;;;;4965699;28;20319;-70
2024/01/11 07:33:06;;;;;;;44.63;22.50;;;-6.60;99.90;;;;;;4965870;28;20196;-70
2024/01/11 07:35:35;;;;;;;41.83;21.55;;;-6.60;99.90;;;;;;4971585;28;20243;-70
2024/01/11 07:38:05;;;;;;;45.40;22.27;;;-6.60;99.90;;;;;;4972239;28;20216;-70
2024/01/11 07:40:32;;;;;;;47.47;22.15;;;-6.50;99.90;;;;;;4972180;28;20211;-70
2024/01/11 07:43:04;;;;;;;51.42;23.58;;;-6.60;99.90;;;;;;4967531;28;20224;-70
2024/01/11 07:45:32;;;;;;;44.72;21.92;;;-6.50;99.90;;;;;;4967607;28;20278;-69
2024/01/11 07:48:00;;;;;;;48.30;22.70;;;-6.50;99.90;;;;;;4966424;28;20204;-69
2024/01/11 07:50:28;;;;;;;49.10;25.70;;;-6.20;99.90;;;;;;4972220;28;20219;-70
2024/01/11 07:52:56;;;;;;;47.40;23.70;;;-6.20;99.90;;;;;;4970561;28;20208;-69
2024/01/11 07:55:26;;;;;;;50.05;24.38;;;-6.10;99.90;;;;;;4966723;28;20208;-70
2024/01/11 07:57:54;;;;;;;49.30;21.48;;;-6.20;99.90;;;;;;4964447;28;20582;-69
2024/01/11 08:00:23;;;;;;;46.80;21.33;;;-6.20;99.90;;;;;;4988376;28;20701;-69
2024/01/11 08:02:51;;;;;;;48.17;22.75;;;-6.20;99.90;;;;;;4982286;28;20589;-70
2024/01/11 08:05:19;;;;;;;38.70;21.50;;;-6.20;99.90;;;;;;4969550;28;20230;-71
2024/01/11 08:07:47;;;;;;;48.30;23.55;;;-6.00;99.90;;;;;;4971433;28;20207;-71
2024/01/11 08:10:15;;;;;;;45.70;22.15;;;-5.90;99.90;;;;;;4971825;28;20214;-69
2024/01/11 08:12:44;;;;;;;43.78;23.30;;;-5.80;99.90;;;;;;4971515;28;20216;-69
2024/01/11 08:15:13;;;;;;;49.15;24.10;;;-5.90;99.90;;;;;;4961705;28;20223;-70
2024/01/11 08:17:45;;;;;;;42.75;23.58;;;-5.90;99.90;;;;;;4977023;28;20210;-68
2024/01/11 08:20:15;;;;;;;49.60;23.50;;;-6.00;99.90;;;;;;4975757;28;20210;-68
2024/01/11 08:22:44;;;;;;;50.05;25.38;;;-5.90;99.90;;;;;;4986916;28;20254;-69
2024/01/11 08:25:12;;;;;;;60.15;27.52;;;-5.80;99.90;;;;;;4981586;28;20223;-68
2024/01/11 08:27:41;;;;;;;43.88;24.38;;;-5.60;99.90;;;;;;4968338;28;20231;-69
2024/01/11 08:30:12;;;;;;;50.15;26.27;;;-5.40;99.90;;;;;;4985529;28;20204;-69
2024/01/11 08:32:41;;;;;;;54.03;26.33;;;-5.20;99.90;;;;;;4977583;28;20208;-69
2024/01/11 08:35:11;;;;;;;53.55;26.65;;;-5.10;99.90;;;;;;4971406;28;20255;-70
2024/01/11 08:37:39;;;;;;;49.63;26.60;;;-5.10;99.90;;;;;;4957783;28;20200;-68
2024/01/11 08:40:09;;;;;;;44.38;22.75;;;-5.20;99.90;;;;;;4967563;28;20203;-68
2024/01/11 08:42:37;;;;;;;52.22;26.27;;;-5.10;99.90;;;;;;4976844;28;20560;-69
2024/01/11 08:45:07;;;;;;;49.90;24.73;;;-4.90;99.90;;;;;;4988010;28;20322;-69
2024/01/11 08:47:38;;;;;;;42.53;23.27;;;-4.80;99.90;;;;;;4974130;28;20207;-70
2024/01/11 08:50:07;;;;;;;49.28;24.38;;;-4.60;99.90;;;;;;4971017;28;20224;-69
2024/01/11 08:52:35;;;;;;;37.72;21.58;;;-4.50;99.90;;;;;;4971027;28;20203;-69
2024/01/11 08:55:04;;;;;;;48.55;25.17;;;-4.50;99.90;;;;;;4970872;28;20682;-69
2024/01/11 08:57:32;;;;;;;49.15;25.20;;;-4.20;99.90;;;;;;4971047;28;20207;-69
2024/01/11 08:59:59;;;;;;;47.88;25.77;;;-4.30;99.90;;;;;;4970385;28;20283;-70
2024/01/11 09:02:27;;;;;;;43.13;23.90;;;-4.10;99.90;;;;;;4968131;28;20222;-69
2024/01/11 09:04:57;;;;;;;48.45;25.30;;;-4.00;99.90;;;;;;4969367;28;20227;-68
2024/01/11 09:07:25;;;;;;;48.75;25.15;;;-3.80;99.90;;;;;;4964005;28;20210;-69
2024/01/11 09:09:54;;;;;;;49.85;24.80;;;-3.70;99.90;;;;;;4970338;28;20281;-69
2024/01/11 09:12:24;;;;;;;49.53;27.55;;;-3.70;99.90;;;;;;4969529;28;20670;-69
2024/01/11 09:14:52;;;;;;;46.35;24.95;;;-3.60;99.90;;;;;;4968092;28;20231;-69
2024/01/11 09:17:21;;;;;;;44.67;24.80;;;-3.40;99.90;;;;;;4968789;28;20215;-70
2024/01/11 09:19:49;;;;;;;48.03;24.73;;;-3.20;99.90;;;;;;4962721;28;20283;-69
2024/01/11 09:22:19;;;;;;;50.47;24.98;;;-3.00;99.90;;;;;;4970425;28;20211;-69
2024/01/11 09:24:47;;;;;;;50.90;27.42;;;-3.00;99.90;;;;;;4970276;28;20338;-69
2024/01/11 09:27:14;;;;;;;44.90;23.60;;;-3.10;99.90;;;;;;4965663;28;20291;-69
2024/01/11 09:29:46;;;;;;;45.55;23.75;;;-3.00;99.90;;;;;;4967444;28;20299;-70
2024/01/11 09:32:14;;;;;;;42.25;23.25;;;-3.10;99.90;;;;;;4962735;28;20210;-70
2024/01/11 09:34:45;;;;;;;46.30;24.23;;;-3.10;99.90;;;;;;4965068;28;20752;-69
2024/01/11 09:37:13;;;;;;;50.67;24.65;;;-3.00;99.90;;;;;;4960932;28;20239;-69
2024/01/11 09:39:43;;;;;;;45.35;25.17;;;-3.00;99.90;;;;;;4969909;28;20760;-69
2024/01/11 09:42:11;;;;;;;45.80;25.88;;;-3.10;99.90;;;;;;4965972;28;20227;-69
2024/01/11 09:44:41;;;;;;;44.30;24.45;;;-3.10;99.90;;;;;;4969726;28;20314;-68
2024/01/11 09:47:18;;;;;;;47.00;24.38;;;-3.20;99.90;;;;;;4941879;28;20782;-74
2024/01/11 09:49:50;;;;;;;47.33;25.73;;;-3.20;99.90;;;;;;4920814;28;20576;-71
2024/01/11 09:52:20;;;;;;;47.20;25.25;;;-3.10;99.90;;;;;;4968063;28;20283;-69
2024/01/11 09:54:50;;;;;;;48.60;25.23;;;-3.10;99.90;;;;;;4983309;28;20651;-70
2024/01/11 09:57:26;;;;;;;44.55;25.25;;;-3.10;99.90;;;;;;4976817;28;20357;-67
2024/01/11 09:59:57;;;;;;;52.13;26.08;;;-3.00;99.90;;;;;;4969212;28;20206;-73
2024/01/11 10:02:26;;;;;;;49.88;25.05;;;-2.80;99.90;;;;;;4969322;28;20203;-68
2024/01/11 10:04:54;;;;;;;42.33;25.67;;;-2.70;99.90;;;;;;4967348;28;20278;-73
2024/01/11 10:07:24;;;;;;;44.28;23.85;;;-2.60;99.90;;;;;;4981102;28;20253;-67
2024/01/11 10:09:54;;;;;;;53.22;25.38;;;-2.50;99.90;;;;;;4983698;28;20632;-75
2024/01/11 10:12:24;;;;;;;46.55;24.55;;;-2.40;99.90;;;;;;4973100;28;20207;-73
2024/01/11 10:14:53;;;;;;;44.65;25.30;;;-2.20;99.90;;;;;;4969329;28;20258;-73
2024/01/11 10:17:21;;;;;;;47.53;24.35;;;-2.10;99.90;;;;;;4976427;28;20290;-74
2024/01/11 10:19:54;;;;;;;46.17;24.85;;;-2.00;99.90;;;;;;4973802;28;20203;-74
2024/01/11 10:22:22;;;;;;;51.95;27.70;;;-1.80;99.90;;;;;;4973727;28;20203;-67
2024/01/11 10:25:10;;;;;;;45.30;25.70;;;-1.80;99.90;;;;;;4984182;28;20227;-68
2024/01/11 10:27:40;;;;;;;43.53;24.75;;;-1.40;99.90;;;;;;4976711;28;20258;-68
2024/01/11 10:30:09;;;;;;;46.53;24.48;;;-0.80;99.90;;;;;;4981093;28;20211;-72
2024/01/11 10:32:38;;;;;;;42.67;25.05;;;-0.10;99.90;;;;;;4982641;28;20661;-72
2024/01/11 10:35:06;;;;;;;43.65;23.20;;;0.70;99.90;;;;;;4979715;28;20603;-70
2024/01/11 10:37:34;;;;;;;47.55;24.75;;;1.50;99.90;;;;;;4977783;28;20209;-69
2024/01/11 10:40:10;;;;;;;39.77;23.40;;;2.00;99.90;;;;;;4981438;28;20623;-67
2024/01/11 10:42:42;;;;;;;44.10;24.47;;;2.50;99.30;;;;;;4981156;28;20443;-68
2024/01/11 10:45:17;;;;;;;43.60;24.43;;;2.30;97.80;;;;;;4962966;28;20496;-75
2024/01/11 10:47:52;;;;;;;40.93;24.80;;;2.00;98.00;;;;;;4963482;28;20466;-76
2024/01/11 10:50:22;;;;;;;39.80;25.20;;;2.20;98.60;;;;;;4976656;28;20526;-71
2024/01/11 10:53:03;;;;;;;42.53;22.07;;;2.50;97.30;;;;;;4981500;28;20967;-72
2024/01/11 10:55:35;;;;;;;41.43;23.40;;;2.30;96.60;;;;;;4975931;28;20441;-69
2024/01/11 10:58:04;;;;;;;40.07;23.30;;;1.90;95.80;;;;;;4972821;28;20465;-72
2024/01/11 11:00:33;;;;;;;44.22;23.00;;;1.30;96.60;;;;;;4969245;28;20531;-69
2024/01/11 11:03:03;;;;;;;43.65;26.15;;;0.60;97.70;;;;;;4988258;28;20227;-67
2024/01/11 11:05:35;;;;;;;45.97;25.67;;;0.20;99.00;;;;;;4979957;28;20201;-69
2024/01/11 11:08:05;;;;;;;46.78;24.92;;;-0.10;99.90;;;;;;4976272;28;20624;-73
2024/01/11 11:10:35;;;;;;;43.92;24.00;;;-0.40;99.90;;;;;;4978497;28;20299;-72
2024/01/11 11:13:06;;;;;;;40.38;24.67;;;-0.60;99.90;;;;;;4907601;28;20681;-68
2024/01/11 11:15:36;;;;;;;45.45;24.13;;;-0.60;99.90;;;;;;4979222;28;20207;-68
2024/01/11 11:18:06;;;;;;;54.50;25.42;;;-0.60;99.90;;;;;;4991746;28;20206;-68
2024/01/11 11:20:35;;;;;;;40.35;22.30;;;-0.70;99.90;;;;;;4984300;28;20203;-69
2024/01/11 11:23:07;;;;;;;45.05;24.10;;;-0.70;99.90;;;;;;4991662;28;20203;-67
2024/01/11 11:25:37;;;;;;;44.00;23.45;;;-0.70;99.90;;;;;;4979505;28;20287;-68
2024/01/11 11:28:06;;;;;;;49.53;25.52;;;-0.70;99.90;;;;;;4991869;28;20291;-68
2024/01/11 11:30:38;;;;;;;46.45;24.95;;;-0.50;99.90;;;;;;4985346;28;20262;-67
2024/01/11 11:33:10;;;;;;;41.90;25.15;;;-0.50;99.90;;;;;;4991539;28;20772;-69
2024/01/11 11:35:39;;;;;;;45.05;24.63;;;-0.50;99.90;;;;;;4979702;28;20204;-68
2024/01/11 11:38:07;;;;;;;46.70;25.30;;;-0.50;99.90;;;;;;4982017;28;20630;-68
2024/01/11 11:40:39;;;;;;;40.05;21.63;;;-0.50;99.90;;;;;;4984299;28;20210;-70
2024/01/11 11:43:08;;;;;;;39.05;22.63;;;-0.50;99.90;;;;;;4990181;28;20310;-67
2024/01/11 11:45:37;;;;;;;39.38;22.85;;;-0.60;99.90;;;;;;4986338;28;20233;-67
2024/01/11 11:48:51;;;;;;;43.45;23.98;;;-0.60;99.90;;;;;;4991356;28;20230;-67
2024/01/11 11:51:20;;;;;;;45.40;23.20;;;-0.60;99.90;;;;;;4975907;28;20200;-67
2024/01/11 11:53:52;;;;;;;43.78;22.73;;;-0.50;99.90;;;;;;4932925;28;20364;-71
2024/01/11 11:56:22;;;;;;;39.17;22.42;;;-0.60;99.90;;;;;;4959987;28;20302;-72
2024/01/11 11:58:52;;;;;;;46.72;22.85;;;-0.50;99.90;;;;;;4971321;28;20210;-74
2024/01/11 12:01:20;;;;;;;48.90;24.35;;;-0.40;99.90;;;;;;4974615;28;20946;-73
2024/01/11 12:03:49;;;;;;;46.72;25.77;;;-0.40;99.90;;;;;;4982102;28;20262;-73
2024/01/11 12:06:19;;;;;;;41.75;24.40;;;-0.30;99.90;;;;;;4969776;28;20606;-68
2024/01/11 12:08:49;;;;;;;41.97;22.33;;;-0.10;99.90;;;;;;4971853;28;20231;-68
2024/01/11 12:11:21;;;;;;;43.80;25.40;;;-0.10;99.90;;;;;;4971681;28;20220;-68
2024/01/11 12:13:52;;;;;;;41.60;24.13;;;-0.10;99.90;;;;;;4971859;28;20322;-69
2024/01/11 12:16:20;;;;;;;36.40;23.00;;;-0.20;99.90;;;;;;4967923;28;20246;-69
2024/01/11 12:18:50;;;;;;;45.13;23.73;;;-0.20;99.90;;;;;;4970806;28;20340;-67
2024/01/11 12:21:18;;;;;;;36.63;22.08;;;-0.20;99.90;;;;;;4966495;28;20656;-68
2024/01/11 12:23:46;;;;;;;47.63;25.40;;;-0.20;99.90;;;;;;4970690;28;20238;-67
2024/01/11 12:26:15;;;;;;;46.17;23.83;;;-0.10;99.90;;;;;;4970010;28;20231;-67
2024/01/11 12:28:45;;;;;;;41.72;23.90;;;-0.10;99.90;;;;;;4971235;28;20208;-69
2024/01/11 12:31:14;;;;;;;45.55;25.25;;;-0.20;99.90;;;;;;4966942;28;20267;-67
2024/01/11 12:33:43;;;;;;;43.90;23.30;;;-0.20;99.90;;;;;;4966209;28;20231;-66
2024/01/11 12:36:11;;;;;;;46.33;24.05;;;-0.20;99.90;;;;;;4967484;28;20208;-68
2024/01/11 12:38:47;;;;;;;47.30;24.65;;;-0.30;99.90;;;;;;4966751;28;20208;-68